Main page
METAR-TAF:

METAR-TAF

Airports :

Harbin Taiping International Airport

Harbin, China

latitude: 45-45N, longitude: 126-46E, elevation: 143 m

Current weather observation

The report was made 25 minutes ago, at 23:00 UTC
Wind 8 kt from the South
Temperature -12°C
Humidity 66%
Pressure 1008 hPa
Visibility 10 km or more
no clouds below 1500 m and no cumulonimbus

METAR: ZYHB 212300Z 19004MPS CAVOK M12/M17 Q1008 NOSIG

Time: 07:25 (23:25 UTC)

Forecast

The report was made 8 hours and 41 minutes ago, at 14:44 UTC
Forecast valid from 21 at 18 UTC to 22 at 18 UTC
Wind 8 kt from the South/Southwest
Visibility: 6000 m
Broken clouds at a height of 3000 ft
Temporary
from 21 at 21 UTC to 22 at 03 UTC
Visibility: 2000 m
light snow showers
Becoming
from 22 at 04 UTC to 22 at 06 UTC
Wind 10 kt from the West

TAF: ZYHB 211444Z 2118/2218 20004MPS 6000 BKN030 TXM03/06Z TNM17/21Z TEMPO 2121/2203 2000 -SHSN BECMG 2204/2206 28005MPS

Weather observations and forecasts of more than 4000 airports (METAR and TAF reports).

The available stations are represented by yellow and red dots on the map.

Hover mouse over dot to see the name of the station.

Then click to see weather observations and forecasts.

To change the map : click on the green buttons with a black cross to zoom in, on the green button with a dash to zoom out, or on the green arrows for adjacent maps.


METAR-TAF: